Time;durP1;ratioP1;P1;durP2;ratioP2;P2;SDS_P1;SDS_P2;PMS_P1;PMS_P2;Temp;Humidity;BMP_temperature;BMP_pressure;BME280_temperature;BME280_humidity;BME280_pressure;Samples;Min_cycle;Max_cycle;Signal;HPM_P1;HPM_P2
2022/06/24 05:26:52;;;;;;;5.60;3.37;;;;;;;20.25;74.35;100684.31;5053171;27;116408;-35
2022/06/24 05:29:17;;;;;;;7.68;4.18;;;;;;;20.25;74.08;100684.31;5054741;27;96774;-35
2022/06/24 05:31:45;;;;;;;5.60;3.60;;;;;;;20.28;74.11;100683.97;5055304;27;98111;-35
2022/06/24 05:34:11;;;;;;;5.65;3.72;;;;;;;20.29;74.49;100688.47;5053558;27;100728;-35
2022/06/24 05:36:37;;;;;;;7.57;4.43;;;;;;;20.29;74.70;100691.22;5055325;27;96530;-35
2022/06/24 05:39:05;;;;;;;6.10;3.72;;;;;;;20.29;74.23;100696.72;5054421;27;96859;-35
2022/06/24 05:41:30;;;;;;;7.07;3.90;;;;;;;20.28;74.34;100697.72;5053651;27;101276;-35
2022/06/24 05:43:56;;;;;;;7.97;4.07;;;;;;;20.34;74.26;100705.34;5053604;27;100660;-35
2022/06/24 05:46:22;;;;;;;5.38;3.28;;;;;;;20.28;75.18;100708.72;5054484;27;96713;-35
2022/06/24 05:48:47;;;;;;;7.38;4.43;;;;;;;20.30;75.36;100725.94;5055048;27;96765;-35
2022/06/24 05:51:15;;;;;;;14.40;4.55;;;;;;;20.27;75.37;100726.28;5055026;27;97965;-35
2022/06/24 05:56:25;;;;;;;9.35;4.28;;;;;;;20.30;74.94;100708.56;5053810;27;96484;-35
2022/06/24 05:58:50;;;;;;;6.50;3.92;;;;;;;20.26;74.71;100710.81;5055194;27;96758;-35
2022/06/24 06:01:16;;;;;;;7.18;4.15;;;;;;;20.29;74.92;100712.38;5054844;27;97312;-35
2022/06/24 06:03:42;;;;;;;10.98;4.57;;;;;;;20.32;75.06;100714.78;5055049;27;97088;-36
2022/06/24 06:06:07;;;;;;;9.93;4.30;;;;;;;20.32;74.83;100712.03;5053370;27;96607;-35
2022/06/24 06:08:33;;;;;;;10.65;4.85;;;;;;;20.33;75.68;100713.75;5053608;27;96812;-35
2022/06/24 06:10:59;;;;;;;10.45;4.63;;;;;;;20.34;75.45;100721.84;5052847;27;100825;-35
2022/06/24 06:13:24;;;;;;;8.82;4.80;;;;;;;20.30;76.14;100714.94;5054740;27;97873;-35
2022/06/24 06:15:49;;;;;;;7.50;4.47;;;;;;;20.28;75.44;100713.38;5054867;27;96645;-35
2022/06/24 06:18:15;;;;;;;7.95;4.55;;;;;;;20.29;75.62;100726.13;5055152;27;96896;-35
2022/06/24 06:20:40;;;;;;;9.07;4.88;;;;;;;20.22;76.82;100725.91;5054499;27;97427;-35
2022/06/24 06:23:06;;;;;;;7.65;3.70;;;;;;;20.12;75.37;100717.75;5054713;27;98347;-35
2022/06/24 06:25:31;;;;;;;6.05;3.45;;;;;;;20.02;75.19;100725.22;5054405;27;96778;-35
2022/06/24 06:27:57;;;;;;;5.90;3.53;;;;;;;20.04;75.46;100720.41;5055194;27;96747;-35
2022/06/24 06:30:22;;;;;;;8.38;3.53;;;;;;;20.04;75.51;100722.31;5054365;27;98381;-35
2022/06/24 06:32:48;;;;;;;5.13;3.10;;;;;;;20.08;75.04;100720.97;5054037;27;97353;-35
2022/06/24 06:35:13;;;;;;;5.95;3.13;;;;;;;20.10;75.08;100725.28;5054089;27;96638;-35
2022/06/24 06:37:39;;;;;;;3.88;2.58;;;;;;;20.08;75.10;100731.97;5054789;27;96769;-35
2022/06/24 06:40:05;;;;;;;5.40;2.67;;;;;;;20.04;75.18;100733.31;5055947;27;97858;-35
2022/06/24 06:42:30;;;;;;;4.10;2.40;;;;;;;20.10;74.54;100733.53;5057707;27;97298;-35
2022/06/24 06:44:55;;;;;;;4.57;2.35;;;;;;;20.07;75.25;100727.47;5057973;27;96499;-35
2022/06/24 06:47:21;;;;;;;3.28;2.25;;;;;;;20.15;74.92;100735.81;5057969;27;96861;-35
2022/06/24 06:49:47;;;;;;;2.80;1.83;;;;;;;20.15;74.24;100741.31;5057224;27;106891;-35
2022/06/24 06:52:12;;;;;;;3.35;1.80;;;;;;;20.10;74.29;100739.03;5056652;27;101196;-35
2022/06/24 06:54:38;;;;;;;3.22;2.03;;;;;;;20.15;74.80;100746.81;5057889;27;96629;-35
2022/06/24 06:57:04;;;;;;;2.38;1.58;;;;;;;20.11;74.57;100743.50;5057953;27;96783;-35
2022/06/24 06:59:29;;;;;;;4.18;2.03;;;;;;;20.20;75.24;100747.19;5057151;27;97972;-35
2022/06/24 07:01:54;;;;;;;2.42;1.65;;;;;;;20.21;74.52;100750.78;5057557;27;97774;-35
2022/06/24 07:04:21;;;;;;;2.83;1.65;;;;;;;20.19;74.85;100750.09;5057780;27;96846;-35
2022/06/24 07:06:47;;;;;;;2.80;1.67;;;;;;;20.26;74.64;100753.94;5057584;27;96827;-35
2022/06/24 07:09:12;;;;;;;3.70;1.75;;;;;;;20.27;74.04;100758.44;5057402;27;97977;-35
2022/06/24 07:11:37;;;;;;;3.85;1.75;;;;;;;20.19;74.59;100739.09;5057739;27;97267;-35
2022/06/24 07:14:03;;;;;;;3.72;1.75;;;;;;;20.20;75.35;100749.94;5057511;27;96571;-35
2022/06/24 07:16:28;;;;;;;3.28;1.70;;;;;;;20.22;74.81;100756.16;5058103;27;96784;-35
2022/06/24 07:18:54;;;;;;;4.28;1.52;;;;;;;20.18;74.84;100753.88;5056937;27;99452;-35
2022/06/24 07:21:19;;;;;;;3.17;1.88;;;;;;;20.13;74.36;100743.34;5056884;27;101091;-35
2022/06/24 07:23:44;;;;;;;3.88;1.77;;;;;;;20.14;74.71;100750.56;5057027;27;96500;-35
2022/06/24 07:26:10;;;;;;;2.92;1.70;;;;;;;20.15;74.69;100750.41;5057241;27;96983;-35
2022/06/24 07:28:36;;;;;;;4.35;1.67;;;;;;;20.15;75.22;100736.66;5056954;27;99484;-35
2022/06/24 07:31:17;;;;;;;2.97;1.60;;;;;;;20.14;75.55;100732.19;5055503;27;100567;-35
2022/06/24 07:33:43;;;;;;;5.35;1.73;;;;;;;20.17;74.61;100724.66;5055816;27;96602;-35
2022/06/24 07:36:09;;;;;;;4.07;1.90;;;;;;;20.21;74.77;100734.28;5057753;27;96795;-35
2022/06/24 07:38:34;;;;;;;2.83;1.80;;;;;;;20.26;74.95;100741.06;5056936;27;97242;-35
2022/06/24 07:40:59;;;;;;;4.28;2.13;;;;;;;20.27;75.11;100733.66;5057203;27;97444;-35
2022/06/24 07:43:25;;;;;;;4.25;2.00;;;;;;;20.23;75.25;100738.59;5057070;27;96491;-35
2022/06/24 07:45:54;;;;;;;5.10;2.15;;;;;;;20.31;74.88;100746.94;5056763;27;96723;-35
2022/06/24 07:48:19;;;;;;;3.13;1.90;;;;;;;20.39;74.83;100740.63;5054831;27;100896;-35
2022/06/24 07:50:45;;;;;;;4.28;2.63;;;;;;;20.42;74.54;100739.44;5056494;27;97717;-35
2022/06/24 07:53:10;;;;;;;7.30;2.47;;;;;;;20.33;74.54;100736.66;5056357;27;98778;-35
2022/06/24 07:58:19;;;;;;;8.02;2.50;;;;;;;20.38;75.17;100722.41;5056914;27;96552;-35
2022/06/24 08:00:45;;;;;;;6.45;2.97;;;;;;;20.46;73.73;100718.84;5056504;27;97883;-35
2022/06/24 08:03:10;;;;;;;5.32;2.78;;;;;;;20.50;74.20;100732.13;5056741;27;96632;-35
2022/06/24 08:05:35;;;;;;;4.38;2.83;;;;;;;20.37;74.36;100732.53;5057083;27;96849;-35
2022/06/24 08:08:01;;;;;;;6.72;3.58;;;;;;;20.42;74.23;100733.94;5055082;27;99387;-35
2022/06/24 08:10:26;;;;;;;6.43;3.40;;;;;;;20.53;74.14;100739.19;5056513;27;97054;-35
2022/06/24 08:12:51;;;;;;;7.15;3.67;;;;;;;20.53;74.43;100731.78;5056442;27;96489;-35
2022/06/24 08:15:17;;;;;;;7.22;3.53;;;;;;;20.55;74.47;100732.53;5056787;27;96820;-35
2022/06/24 08:17:43;;;;;;;5.57;3.60;;;;;;;20.75;74.03;100730.38;5056163;27;99357;-35
2022/06/24 08:20:09;;;;;;;11.55;3.85;;;;;;;20.85;74.70;100734.91;5054741;27;99573;-35
2022/06/24 08:22:34;;;;;;;12.70;4.47;;;;;;;20.88;74.27;100734.56;5054967;27;96562;-34
2022/06/24 08:25:01;;;;;;;9.13;4.82;;;;;;;20.91;73.75;100737.03;5056551;27;96795;-35
2022/06/24 08:27:26;;;;;;;10.45;4.88;;;;;;;21.04;73.77;100731.91;5055720;27;99336;-35
2022/06/24 08:29:52;;;;;;;8.02;4.63;;;;;;;21.26;73.12;100733.22;5055176;27;97728;-35
2022/06/24 08:32:17;;;;;;;9.60;4.93;;;;;;;21.32;72.52;100734.44;5056393;27;96831;-35
2022/06/24 08:34:42;;;;;;;12.23;6.25;;;;;;;21.26;72.18;100727.72;5056318;27;96840;-35
2022/06/24 08:37:08;;;;;;;10.15;5.18;;;;;;;21.26;72.33;100713.03;5054479;27;99393;-34
2022/06/24 08:39:33;;;;;;;11.85;5.65;;;;;;;21.34;72.53;100724.97;5055765;27;99065;-35
2022/06/24 08:42:01;;;;;;;12.00;4.97;;;;;;;21.28;72.58;100713.75;5056352;27;96802;-34
2022/06/24 08:44:26;;;;;;;10.25;5.38;;;;;;;21.26;72.23;100713.94;5054585;27;96797;-35
2022/06/24 08:46:52;;;;;;;11.95;6.07;;;;;;;21.30;73.06;100722.72;5055878;27;97806;-35
2022/06/24 08:49:17;;;;;;;12.45;5.85;;;;;;;21.35;71.76;100728.56;5055682;27;99124;-35
2022/06/24 08:51:47;;;;;;;10.15;5.68;;;;;;;21.37;71.96;100732.03;5056238;27;96631;-35
2022/06/24 08:54:16;;;;;;;11.85;5.60;;;;;;;21.37;72.06;100723.75;5054921;27;96829;-35
2022/06/24 08:56:42;;;;;;;10.40;5.50;;;;;;;21.43;72.19;100720.38;5053984;27;100936;-35
2022/06/24 08:59:07;;;;;;;12.05;5.07;;;;;;;21.43;71.28;100717.63;5054288;27;100974;-35
2022/06/24 09:01:41;;;;;;;9.40;5.18;;;;;;;21.48;71.11;100723.50;5055276;27;96614;-35
2022/06/24 09:04:10;;;;;;;12.68;5.82;;;;;;;21.53;70.86;100731.25;5054684;27;96657;-35
2022/06/24 09:06:41;;;;;;;10.73;5.93;;;;;;;21.62;71.59;100725.59;5055450;27;99601;-35
2022/06/24 09:09:07;;;;;;;10.43;4.75;;;;;;;21.77;70.15;100725.78;5053750;27;100725;-35
2022/06/24 09:11:40;;;;;;;8.68;5.03;;;;;;;22.06;68.70;100722.50;5054472;27;96471;-35
2022/06/24 09:14:06;;;;;;;9.35;4.53;;;;;;;22.24;69.36;100721.50;5055645;27;96849;-35
2022/06/24 09:16:36;;;;;;;10.40;4.78;;;;;;;22.47;68.17;100711.44;5054006;27;101354;-35
2022/06/24 09:19:03;;;;;;;8.10;4.28;;;;;;;22.53;68.38;100709.06;5054236;27;101236;-35
2022/06/24 09:21:30;;;;;;;11.40;3.88;;;;;;;22.55;67.29;100715.22;5055583;27;96767;-35
2022/06/24 09:23:58;;;;;;;7.50;4.15;;;;;;;22.42;67.11;100711.13;5054047;27;96666;-35
2022/06/24 09:26:43;;;;;;;10.77;4.68;;;;;;;22.40;67.57;100723.38;5052924;27;101277;-35
2022/06/24 09:29:14;;;;;;;9.95;5.55;;;;;;;22.51;67.77;100725.78;5054933;27;99219;-35
2022/06/24 09:31:39;;;;;;;9.77;4.85;;;;;;;22.61;67.39;100718.16;5055570;27;96586;-35
2022/06/24 09:34:10;;;;;;;12.20;5.85;;;;;;;22.70;67.42;100719.00;5055241;27;96711;-36
2022/06/24 09:36:37;;;;;;;12.93;5.93;;;;;;;22.78;66.41;100726.41;5053854;27;100956;-35
2022/06/24 09:39:06;;;;;;;14.07;6.53;;;;;;;22.88;66.00;100716.88;5053729;27;100741;-35
2022/06/24 09:41:46;;;;;;;14.48;6.43;;;;;;;23.24;65.53;100716.41;5053956;27;96757;-34
2022/06/24 09:44:12;;;;;;;14.48;5.97;;;;;;;23.57;65.64;100715.34;5054383;27;96742;-35
2022/06/24 09:46:38;;;;;;;12.48;5.65;;;;;;;23.71;64.85;100715.41;5054735;27;98404;-35
2022/06/24 09:49:21;;;;;;;11.40;4.72;;;;;;;24.08;62.98;100715.69;5054980;27;98046;-35
2022/06/24 09:51:47;;;;;;;9.82;5.15;;;;;;;24.32;62.31;100711.84;5054222;27;108632;-35
2022/06/24 09:54:16;;;;;;;13.18;6.22;;;;;;;24.34;61.17;100710.59;5055456;27;98066;-35
2022/06/24 09:56:44;;;;;;;11.27;5.60;;;;;;;24.44;61.57;100704.78;5053380;27;101238;-35
2022/06/24 10:01:54;;;;;;;10.35;5.22;;;;;;;24.62;61.33;100715.53;5055357;27;96420;-35
2022/06/24 10:04:22;;;;;;;13.13;6.20;;;;;;;24.66;60.74;100697.50;5053733;27;96859;-35
2022/06/24 10:06:49;;;;;;;14.35;5.85;;;;;;;24.97;61.32;100699.19;5053394;27;100889;-34
2022/06/24 10:09:20;;;;;;;13.45;6.57;;;;;;;25.22;60.40;100697.00;5053419;27;100927;-35
2022/06/24 10:11:47;;;;;;;12.82;6.32;;;;;;;25.31;58.69;100698.59;5053294;27;96631;-35
2022/06/24 10:14:12;;;;;;;9.20;6.07;;;;;;;25.21;59.63;100704.44;5053892;27;96901;-35
2022/06/24 10:16:41;;;;;;;12.13;6.78;;;;;;;25.25;59.22;100701.31;5057852;27;97881;-35
2022/06/24 10:19:09;;;;;;;10.95;5.38;;;;;;;25.49;59.57;100700.09;5056814;27;101025;-35
2022/06/24 10:21:34;;;;;;;13.20;6.70;;;;;;;25.67;58.43;100705.19;5057220;27;96622;-34
2022/06/24 10:24:09;;;;;;;19.88;8.48;;;;;;;25.88;58.76;100712.69;5058563;27;96813;-35
2022/06/24 10:26:38;;;;;;;17.88;8.88;;;;;;;25.60;58.77;100706.00;5057650;27;97908;-35
2022/06/24 10:29:07;;;;;;;14.55;8.00;;;;;;;25.25;59.64;100721.56;5040025;27;100736;-35
2022/06/24 10:31:48;;;;;;;12.60;6.70;;;;;;;24.87;59.65;100715.28;5056908;27;96627;-35
2022/06/24 10:34:22;;;;;;;11.00;6.30;;;;;;;24.62;60.76;100717.44;5058325;27;96816;-34
2022/06/24 10:36:52;;;;;;;14.68;7.45;;;;;;;24.30;61.02;100716.72;5057614;27;99002;-35
2022/06/24 10:39:20;;;;;;;15.75;7.30;;;;;;;24.17;61.53;100720.13;5056470;27;100940;-34
2022/06/24 10:41:46;;;;;;;14.80;7.97;;;;;;;24.05;61.60;100714.16;5058080;27;96612;-34
2022/06/24 10:44:22;;;;;;;16.35;7.35;;;;;;;23.95;61.87;100716.31;5056555;27;97172;-34
2022/06/24 10:47:07;;;;;;;15.63;7.18;;;;;;;23.86;62.10;100709.13;5055990;27;100897;-34
2022/06/24 10:49:56;;;;;;;12.93;6.93;;;;;;;23.68;60.54;100715.78;5057651;27;97792;-34
2022/06/24 10:52:33;;;;;;;11.65;5.50;;;;;;;23.46;60.42;100713.88;5057060;27;96891;-35
2022/06/24 10:55:17;;;;;;;11.85;5.07;;;;;;;23.39;62.44;100705.44;5057817;27;96878;-34
2022/06/24 10:58:01;;;;;;;11.82;4.95;;;;;;;23.30;62.87;100710.16;5057678;27;98376;-34
2022/06/24 11:00:28;;;;;;;7.93;4.25;;;;;;;23.17;63.83;100695.19;5056644;27;101303;-34
2022/06/24 11:03:13;;;;;;;9.45;5.00;;;;;;;23.04;64.79;100695.78;5057996;27;96525;-34
2022/06/24 11:05:47;;;;;;;11.13;5.18;;;;;;;22.86;64.57;100696.88;5057973;27;96613;-34
2022/06/24 11:08:16;;;;;;;10.25;4.85;;;;;;;22.83;65.58;100699.09;5057242;27;97971;-35
2022/06/24 11:10:43;;;;;;;11.77;5.18;;;;;;;22.74;66.16;100695.53;5057036;27;99072;-35
2022/06/24 11:13:10;;;;;;;13.68;5.78;;;;;;;22.66;66.12;100682.59;5056150;27;96606;-35
2022/06/24 11:15:46;;;;;;;11.50;6.05;;;;;;;22.59;66.16;100684.34;5056167;27;96742;-34
2022/06/24 11:18:17;;;;;;;12.27;6.40;;;;;;;22.42;66.44;100675.22;5055809;27;100873;-35
2022/06/24 11:20:58;;;;;;;11.40;6.53;;;;;;;22.48;68.37;100688.34;5055868;27;100717;-35
2022/06/24 11:23:25;;;;;;;10.55;6.28;;;;;;;22.51;66.61;100695.41;5057526;27;96762;-35
2022/06/24 11:25:52;;;;;;;12.32;5.82;;;;;;;22.63;66.78;100682.09;5055216;27;96805;-35
2022/06/24 11:28:20;;;;;;;10.40;5.70;;;;;;;22.84;66.49;100692.56;5055473;27;101334;-34
2022/06/24 11:30:46;;;;;;;13.32;5.78;;;;;;;23.03;67.81;100691.31;5055623;27;101346;-35
2022/06/24 11:33:11;;;;;;;14.13;5.45;;;;;;;23.10;66.35;100684.88;5056588;27;96867;-35
2022/06/24 11:35:37;;;;;;;9.40;5.07;;;;;;;23.43;66.46;100692.97;5057524;27;96784;-35
2022/06/24 11:38:07;;;;;;;7.78;4.22;;;;;;;23.85;65.59;100693.56;5055565;27;101210;-35
2022/06/24 11:40:33;;;;;;;5.63;2.83;;;;;;;24.10;63.42;100697.88;5055497;27;100689;-34
2022/06/24 11:43:11;;;;;;;5.32;2.60;;;;;;;24.04;61.65;100698.59;5055882;27;96576;-34
2022/06/24 11:45:44;;;;;;;4.43;2.35;;;;;;;24.33;62.73;100702.47;5056965;27;96763;-35
2022/06/24 11:48:12;;;;;;;4.53;2.70;;;;;;;24.47;60.52;100693.38;5055517;27;101046;-35
2022/06/24 11:50:39;;;;;;;5.88;2.55;;;;;;;24.59;59.93;100689.06;5055708;27;100785;-34
2022/06/24 11:53:06;;;;;;;6.15;3.10;;;;;;;24.57;59.60;100693.97;5055691;27;96476;-34
2022/06/24 11:55:35;;;;;;;7.50;3.28;;;;;;;24.83;60.87;100700.94;5055515;27;96876;-34
2022/06/24 11:58:05;;;;;;;4.35;2.28;;;;;;;24.72;59.89;100691.19;5054439;27;101028;-34
2022/06/24 12:00:33;;;;;;;6.40;3.40;;;;;;;24.99;60.40;100695.19;5056566;27;97971;-35
2022/06/24 12:02:59;;;;;;;7.40;2.72;;;;;;;25.26;58.55;100694.69;5055730;27;96732;-35
2022/06/24 12:05:30;;;;;;;5.28;2.42;;;;;;;25.31;59.07;100687.50;5056778;27;96995;-35
2022/06/24 12:07:57;;;;;;;6.25;2.90;;;;;;;25.23;58.87;100682.09;5055126;27;100932;-34
2022/06/24 12:10:22;;;;;;;5.15;2.78;;;;;;;25.54;58.71;100679.03;5054970;27;100676;-35
2022/06/24 12:12:57;;;;;;;12.75;3.40;;;;;;;25.65;57.90;100685.97;5056594;27;96543;-34
2022/06/24 12:15:45;;;;;;;6.80;3.42;;;;;;;25.72;57.98;100686.91;5057061;27;96843;-35
2022/06/24 12:18:14;;;;;;;5.07;2.83;;;;;;;25.90;57.37;100682.84;5055344;27;98068;-34
2022/06/24 12:20:40;;;;;;;4.88;2.47;;;;;;;25.94;55.50;100682.25;5054601;27;102039;-35
2022/06/24 12:23:17;;;;;;;6.03;2.85;;;;;;;25.79;54.73;100675.84;5055994;27;96689;-35
2022/06/24 12:25:45;;;;;;;8.88;3.20;;;;;;;25.82;56.51;100675.47;5054533;27;96813;-35
2022/06/24 12:28:17;;;;;;;5.28;3.03;;;;;;;25.80;55.87;100675.66;5054664;27;101297;-34
2022/06/24 12:30:54;;;;;;;7.85;3.25;;;;;;;25.91;55.97;100682.66;5054680;27;100757;-34
2022/06/24 12:33:20;;;;;;;8.00;3.20;;;;;;;26.14;56.21;100674.06;5054846;27;96654;-35
2022/06/24 12:35:47;;;;;;;4.15;2.70;;;;;;;26.34;56.06;100678.91;5056452;27;96750;-35
2022/06/24 12:38:13;;;;;;;5.43;2.65;;;;;;;25.85;53.35;100659.28;5055735;27;97954;-35
2022/06/24 12:40:42;;;;;;;5.05;2.70;;;;;;;25.93;55.98;100682.44;5054817;27;100806;-35
2022/06/24 12:43:14;;;;;;;8.27;2.90;;;;;;;25.96;56.04;100677.34;5055094;27;96584;-35
2022/06/24 12:45:42;;;;;;;6.80;3.15;;;;;;;25.98;53.41;100674.34;5054824;27;96831;-35
2022/06/24 12:51:12;;;;;;;5.47;2.38;;;;;;;25.37;54.43;100672.88;5054083;27;97003;-34
2022/06/24 12:53:37;;;;;;;3.33;1.98;;;;;;;25.38;57.02;100688.44;5055009;27;96812;-35
2022/06/24 12:56:03;;;;;;;5.63;2.63;;;;;;;25.38;56.67;100677.34;5056206;27;96795;-34
2022/06/24 12:58:28;;;;;;;6.18;2.72;;;;;;;25.60;56.91;100678.25;5054103;27;101100;-35
2022/06/24 13:00:54;;;;;;;4.72;2.50;;;;;;;25.89;55.81;100670.88;5055802;27;97725;-35
2022/06/24 13:03:20;;;;;;;3.42;2.13;;;;;;;26.10;55.82;100661.66;5055935;27;97149;-35
2022/06/24 13:05:46;;;;;;;6.78;2.78;;;;;;;26.18;55.43;100675.41;5056094;27;96796;-35
2022/06/24 13:08:12;;;;;;;5.78;3.10;;;;;;;25.98;55.66;100672.47;5054191;27;101079;-35
2022/06/24 13:10:38;;;;;;;4.90;2.67;;;;;;;25.73;56.52;100669.19;5055696;27;96678;-35
2022/06/24 13:13:04;;;;;;;6.53;3.25;;;;;;;25.51;56.77;100664.72;5053689;27;96827;-35
2022/06/24 13:15:30;;;;;;;6.97;2.75;;;;;;;25.29;57.39;100673.00;5054267;27;96624;-35
2022/06/24 13:17:56;;;;;;;6.25;3.10;;;;;;;25.05;57.41;100668.63;5055471;27;98566;-35
2022/06/24 13:20:21;;;;;;;5.15;3.10;;;;;;;24.97;57.83;100688.97;5055168;27;99074;-35
2022/06/24 13:22:47;;;;;;;5.97;3.22;;;;;;;24.83;57.89;100684.31;5055487;27;96690;-35
2022/06/24 13:25:13;;;;;;;10.18;3.85;;;;;;;24.73;58.05;100673.50;5055450;27;96838;-34
2022/06/24 13:27:40;;;;;;;6.38;3.10;;;;;;;24.82;58.08;100676.19;5053490;27;100882;-35
2022/06/24 13:30:08;;;;;;;7.38;3.03;;;;;;;24.77;58.02;100676.78;5054231;27;100714;-35
2022/06/24 13:32:34;;;;;;;5.13;2.78;;;;;;;24.69;57.90;100690.69;5053810;27;96711;-35
2022/06/24 13:35:00;;;;;;;5.65;2.97;;;;;;;24.51;58.15;100700.25;5055707;27;96765;-34
2022/06/24 13:37:27;;;;;;;3.72;2.47;;;;;;;24.37;58.66;100699.16;5055006;27;97386;-34
2022/06/24 13:39:53;;;;;;;5.32;3.00;;;;;;;24.26;58.77;100704.28;5037011;27;98869;-34
2022/06/24 13:42:19;;;;;;;3.63;2.30;;;;;;;24.28;58.92;100700.28;5053901;27;96662;-35
2022/06/24 13:44:45;;;;;;;5.10;2.80;;;;;;;24.40;58.82;100697.06;5054045;27;96905;-35
2022/06/24 13:47:10;;;;;;;4.70;2.70;;;;;;;24.48;58.12;100685.91;5054700;27;97451;-34
2022/06/24 13:49:35;;;;;;;7.68;2.50;;;;;;;24.72;58.69;100701.44;5053815;27;110951;-35
2022/06/24 13:52:04;;;;;;;5.55;3.35;;;;;;;24.79;57.77;100683.84;5055098;27;96421;-35
2022/06/24 13:54:29;;;;;;;5.22;3.13;;;;;;;24.65;57.84;100689.38;5055499;27;97010;-35
2022/06/24 13:56:56;;;;;;;7.70;3.33;;;;;;;24.54;57.85;100686.03;5054429;27;99059;-35
2022/06/24 13:59:21;;;;;;;4.00;2.55;;;;;;;24.43;58.03;100683.72;5054856;27;97776;-35
2022/06/24 14:01:47;;;;;;;7.03;3.00;;;;;;;24.39;58.34;100707.28;5054540;27;96589;-35
2022/06/24 14:04:12;;;;;;;6.25;2.63;;;;;;;24.20;58.43;100699.50;5055268;27;96783;-34
2022/06/24 14:06:37;;;;;;;7.28;2.95;;;;;;;24.19;58.90;100701.41;5054578;27;99861;-35
2022/06/24 14:09:04;;;;;;;5.35;3.10;;;;;;;24.23;58.87;100702.75;5054646;27;99070;-35
2022/06/24 14:11:30;;;;;;;7.60;3.90;;;;;;;24.36;58.15;100702.97;5053155;27;96783;-35
2022/06/24 14:13:56;;;;;;;5.60;3.25;;;;;;;24.44;57.55;100699.25;5053535;27;96824;-35
2022/06/24 14:16:21;;;;;;;4.75;3.10;;;;;;;24.41;57.83;100707.94;5054710;27;97614;-35
2022/06/24 14:18:47;;;;;;;6.18;3.25;;;;;;;24.40;58.20;100702.59;5055095;27;97850;-35
2022/06/24 14:21:13;;;;;;;5.07;2.97;;;;;;;24.35;57.59;100695.69;5054903;27;96628;-35
2022/06/24 14:26:22;;;;;;;4.45;2.85;;;;;;;24.28;58.63;100696.66;5052216;27;97101;-35
2022/06/24 14:28:48;;;;;;;6.43;3.10;;;;;;;24.32;58.78;100693.31;5054379;27;99756;-35
2022/06/24 14:31:13;;;;;;;5.75;3.10;;;;;;;24.37;57.90;100678.91;5053264;27;96784;-35
2022/06/24 14:33:39;;;;;;;6.60;3.35;;;;;;;24.37;57.72;100679.75;5054399;27;96834;-35
2022/06/24 14:36:04;;;;;;;6.60;2.85;;;;;;;24.42;57.86;100683.88;5053031;27;101344;-35
2022/06/24 14:41:14;;;;;;;5.40;2.55;;;;;;;24.40;57.20;100685.97;5053036;27;96602;-34
2022/06/24 14:43:39;;;;;;;11.15;2.60;;;;;;;24.41;57.19;100687.69;5055228;27;96526;-35
2022/06/24 14:46:05;;;;;;;4.88;2.58;;;;;;;24.48;57.42;100689.56;5053984;27;97982;-35
2022/06/24 14:48:30;;;;;;;4.82;2.55;;;;;;;24.49;56.34;100696.81;5054104;27;97768;-35
2022/06/24 14:50:55;;;;;;;4.47;2.75;;;;;;;24.39;56.54;100687.91;5052190;27;96742;-35
2022/06/24 14:53:21;;;;;;;5.88;2.67;;;;;;;24.40;57.56;100686.84;5054632;27;96932;-35
2022/06/24 14:55:46;;;;;;;4.50;2.65;;;;;;;24.30;55.58;100697.31;5054256;27;98081;-35
2022/06/24 14:58:12;;;;;;;8.07;2.63;;;;;;;24.30;57.43;100686.25;5053943;27;98393;-35
2022/06/24 15:00:38;;;;;;;4.90;2.30;;;;;;;24.33;57.34;100685.88;5055225;27;96553;-35
2022/06/24 15:03:04;;;;;;;4.38;2.45;;;;;;;24.30;57.43;100700.09;5056379;27;96831;-35
2022/06/24 15:05:29;;;;;;;4.80;2.28;;;;;;;24.28;57.82;100691.97;5067021;27;98382;-35
2022/06/24 15:07:55;;;;;;;3.08;2.08;;;;;;;24.27;57.29;100697.72;5078317;27;97762;-35
2022/06/24 15:10:21;;;;;;;5.20;2.20;;;;;;;24.25;57.56;100695.13;5064090;27;96579;-35
2022/06/24 15:12:46;;;;;;;4.30;1.65;;;;;;;24.23;57.24;100696.34;5078450;27;96788;-35
2022/06/24 15:15:12;;;;;;;3.53;1.40;;;;;;;24.19;57.36;100695.84;5060799;27;97956;-35
2022/06/24 15:17:38;;;;;;;3.42;1.70;;;;;;;24.18;56.81;100688.63;5055961;27;101118;-35
2022/06/24 15:20:05;;;;;;;2.20;1.60;;;;;;;24.11;56.86;100682.97;5055956;27;96863;-35
2022/06/24 15:22:30;;;;;;;3.60;1.50;;;;;;;24.14;56.70;100688.13;5056086;27;96832;-35
2022/06/24 15:24:56;;;;;;;2.75;1.83;;;;;;;24.14;56.81;100681.72;5057293;27;98062;-35
2022/06/24 15:27:21;;;;;;;2.92;1.50;;;;;;;24.16;56.43;100671.34;5057068;27;97300;-35
2022/06/24 15:29:47;;;;;;;2.90;1.50;;;;;;;24.16;56.73;100658.34;5057472;27;96502;-35
2022/06/24 15:32:13;;;;;;;2.22;1.40;;;;;;;24.19;56.90;100668.19;5056178;27;96842;-35
2022/06/24 15:34:38;;;;;;;2.45;1.35;;;;;;;24.19;57.19;100667.31;5056700;27;99919;-35
2022/06/24 15:37:04;;;;;;;1.70;1.23;;;;;;;24.14;56.59;100665.13;5059029;27;100685;-35
2022/06/24 15:39:31;;;;;;;2.20;1.13;;;;;;;24.23;55.50;100669.53;5063674;27;96994;-35
2022/06/24 15:41:56;;;;;;;1.52;1.13;;;;;;;24.23;56.24;100668.69;5067815;27;96866;-35
2022/06/24 15:44:22;;;;;;;2.15;1.23;;;;;;;24.25;56.60;100672.13;5068432;27;97977;-35
2022/06/24 15:46:47;;;;;;;3.90;1.73;;;;;;;24.27;56.53;100670.03;5064902;27;98828;-35
2022/06/24 15:49:12;;;;;;;2.88;1.52;;;;;;;24.14;56.26;100654.91;5067135;27;96616;-35
2022/06/24 15:51:38;;;;;;;1.95;1.15;;;;;;;24.20;56.50;100663.53;5067084;27;96842;-35
2022/06/24 15:54:04;;;;;;;1.52;1.17;;;;;;;24.30;56.36;100662.19;5058503;27;101037;-35
2022/06/24 15:56:30;;;;;;;3.63;1.33;;;;;;;24.45;55.60;100667.72;5057140;27;97883;-35
2022/06/24 15:58:55;;;;;;;2.38;1.38;;;;;;;24.56;55.84;100660.91;5056941;27;96551;-35
2022/06/24 16:01:21;;;;;;;1.73;1.23;;;;;;;24.62;54.77;100662.91;5056994;27;96875;-35
2022/06/24 16:03:46;;;;;;;1.65;1.27;;;;;;;24.62;55.20;100657.38;5056123;27;98383;-35
2022/06/24 16:06:12;;;;;;;2.55;1.33;;;;;;;24.49;54.30;100651.66;5056762;27;97275;-35
2022/06/24 16:08:38;;;;;;;1.90;1.15;;;;;;;24.49;55.08;100660.81;5055144;27;97607;-34
2022/06/24 16:11:05;;;;;;;2.13;1.42;;;;;;;24.41;54.84;100657.22;5065485;27;96887;-35
2022/06/24 16:13:32;;;;;;;1.55;1.27;;;;;;;24.46;54.56;100668.63;5067080;27;100643;-38
2022/06/24 16:15:57;;;;;;;2.30;1.27;;;;;;;24.49;53.51;100658.03;5079898;27;99502;-35
2022/06/24 16:18:24;;;;;;;1.48;1.15;;;;;;;24.56;54.63;100660.91;5080729;27;97960;-35
2022/06/24 16:20:50;;;;;;;1.55;1.10;;;;;;;24.55;54.33;100660.06;5076965;27;97256;-35
2022/06/24 16:23:17;;;;;;;1.70;1.13;;;;;;;24.58;54.92;100667.13;5061068;27;98003;-35
2022/06/24 16:28:49;;;;;;;1.83;1.30;;;;;;;24.42;54.75;100690.28;5061686;27;97953;-36
2022/06/24 16:31:14;;;;;;;2.53;1.23;;;;;;;24.38;55.01;100702.78;5073134;27;96945;-35
2022/06/24 16:33:41;;;;;;;23.25;7.88;;;;;;;24.23;55.54;100679.75;5076218;27;99702;-35
2022/06/24 16:36:07;;;;;;;11.85;4.25;;;;;;;24.18;55.39;100691.38;5074987;27;101058;-35
2022/06/24 16:38:33;;;;;;;16.00;5.32;;;;;;;24.05;56.05;100685.63;5074262;27;96650;-36
2022/06/24 16:41:00;;;;;;;16.88;4.82;;;;;;;24.05;55.76;100697.56;5075284;27;96904;-35
2022/06/24 16:43:28;;;;;;;5.40;2.50;;;;;;;24.03;56.04;100684.97;5074951;27;97555;-35
2022/06/24 16:46:00;;;;;;;3.92;1.77;;;;;;;24.01;55.79;100687.91;5076135;27;99164;-35
2022/06/24 16:48:33;;;;;;;5.53;2.10;;;;;;;23.97;55.95;100677.41;5075782;27;96957;-36
2022/06/24 16:51:00;;;;;;;4.82;1.75;;;;;;;24.04;56.53;100675.59;5074292;27;96995;-35
2022/06/24 16:53:28;;;;;;;2.10;1.33;;;;;;;24.09;56.24;100675.91;5074429;27;101278;-35
2022/06/24 16:55:54;;;;;;;2.78;1.63;;;;;;;24.08;55.87;100665.88;5074620;27;100717;-35
2022/06/24 16:58:20;;;;;;;3.45;1.77;;;;;;;24.19;55.87;100664.56;5075048;27;96582;-35
2022/06/24 17:00:46;;;;;;;2.78;1.70;;;;;;;24.23;55.58;100669.53;5076675;27;96772;-35
2022/06/24 17:03:12;;;;;;;4.15;1.65;;;;;;;24.25;56.05;100661.03;5073167;27;100885;-35
2022/06/24 17:05:38;;;;;;;3.85;1.60;;;;;;;24.26;55.74;100671.91;5073725;27;100779;-35
2022/06/24 17:08:04;;;;;;;2.83;1.80;;;;;;;24.32;55.53;100685.00;5076336;27;96704;-35